Time;durP1;ratioP1;P1;durP2;ratioP2;P2;SDS_P1;SDS_P2;PMS_P1;PMS_P2;Temp;Humidity;BMP_temperature;BMP_pressure;BME280_temperature;BME280_humidity;BME280_pressure;Samples;Min_cycle;Max_cycle;Signal;HPM_P1;HPM_P2
2023/12/01 00:01:08;;;;;;;68.00;33.30;;;;;;;-3.52;97.96;99325.90;105396;1258;69187;-58
2023/12/01 00:03:48;;;;;;;57.80;30.60;;;;;;;-3.55;98.26;99323.33;105381;1253;73623;-57
2023/12/01 00:06:16;;;;;;;62.00;30.50;;;;;;;-3.61;98.00;99324.34;105456;1254;81994;-57
2023/12/01 00:08:45;;;;;;;55.10;29.10;;;;;;;-3.69;97.73;99325.52;105389;1259;71514;-57
2023/12/01 00:11:13;;;;;;;58.70;30.90;;;;;;;-3.76;97.53;99322.41;105390;1253;69082;-58
2023/12/01 00:13:42;;;;;;;58.80;31.00;;;;;;;-3.83;97.55;99313.86;105399;1259;69200;-57
2023/12/01 00:16:10;;;;;;;61.80;32.20;;;;;;;-3.89;97.43;99310.94;105420;1254;75025;-57
2023/12/01 00:18:38;;;;;;;56.10;29.40;;;;;;;-3.95;97.46;99312.79;105382;1254;82752;-58
2023/12/01 00:21:07;;;;;;;63.40;32.80;;;;;;;-3.96;98.02;99320.45;105379;1258;73434;-57
2023/12/01 00:23:35;;;;;;;62.50;33.80;;;;;;;-3.91;98.82;99321.67;105435;1253;69083;-57
2023/12/01 00:26:04;;;;;;;60.80;31.80;;;;;;;-3.90;98.72;99323.56;105379;1254;69083;-57
2023/12/01 00:28:32;;;;;;;63.40;33.40;;;;;;;-3.92;98.74;99315.53;105453;1254;73206;-57
2023/12/01 00:31:00;;;;;;;65.60;33.60;;;;;;;-3.88;99.20;99317.59;105376;1253;81388;-58
2023/12/01 00:33:29;;;;;;;66.70;33.40;;;;;;;-3.87;99.10;99315.56;105443;1258;72607;-57
2023/12/01 00:36:00;;;;;;;60.80;31.50;;;;;;;-3.88;99.02;99309.73;105463;1253;69128;-57
2023/12/01 00:38:28;;;;;;;60.30;32.10;;;;;;;-3.91;98.81;99306.83;105412;1254;69269;-57
2023/12/01 00:40:56;;;;;;;61.00;31.80;;;;;;;-3.93;98.86;99305.64;105425;1254;73065;-58
2023/12/01 00:43:26;;;;;;;62.80;32.90;;;;;;;-3.94;98.70;99313.64;105446;1259;83116;-57
2023/12/01 00:45:54;;;;;;;63.60;33.50;;;;;;;-3.96;98.72;99321.83;105413;1253;71772;-57
2023/12/01 00:48:24;;;;;;;74.60;37.60;;;;;;;-3.93;99.09;99323.55;105429;1257;69170;-57
2023/12/01 00:50:52;;;;;;;67.50;37.50;;;;;;;-3.86;99.62;99322.04;105462;1259;69214;-58
2023/12/01 00:53:20;;;;;;;68.50;35.70;;;;;;;-3.84;99.56;99325.81;105450;1253;74363;-56
2023/12/01 00:55:49;;;;;;;76.70;38.40;;;;;;;-3.84;99.59;99327.85;105269;1259;81214;-58
2023/12/01 00:58:17;;;;;;;75.30;38.80;;;;;;;-3.83;99.59;99323.59;105465;1255;71428;-58
2023/12/01 01:00:45;;;;;;;76.40;37.90;;;;;;;-3.80;99.79;99324.12;105379;1253;69156;-58
2023/12/01 01:03:14;;;;;;;73.80;37.80;;;;;;;-3.76;99.99;99327.19;105475;1259;69167;-58
2023/12/01 01:05:42;;;;;;;73.10;37.50;;;;;;;-3.73;99.94;99327.04;105406;1253;72693;-57
2023/12/01 01:08:11;;;;;;;74.20;38.30;;;;;;;-3.71;99.92;99327.73;105368;1258;81297;-58
2023/12/01 01:10:39;;;;;;;72.80;38.00;;;;;;;-3.68;100.00;99328.76;105372;1258;72404;-58
2023/12/01 01:13:07;;;;;;;72.60;36.60;;;;;;;-3.64;99.97;99324.51;105451;1253;69494;-58
2023/12/01 01:15:36;;;;;;;76.20;38.60;;;;;;;-3.61;100.00;99331.34;105376;1253;69086;-57
2023/12/01 01:18:04;;;;;;;72.50;38.00;;;;;;;-3.55;100.00;99337.33;105427;1254;72796;-58
2023/12/01 01:20:32;;;;;;;80.50;41.90;;;;;;;-3.51;100.00;99332.40;105416;1254;81292;-54
2023/12/01 01:23:01;;;;;;;80.30;40.10;;;;;;;-3.46;100.00;99333.09;105472;1259;71766;-57
2023/12/01 01:25:30;;;;;;;81.40;41.90;;;;;;;-3.41;100.00;99337.70;105348;1254;69153;-58
2023/12/01 01:27:58;;;;;;;76.00;41.40;;;;;;;-3.38;100.00;99342.52;105460;1259;69157;-58
2023/12/01 01:30:26;;;;;;;75.80;41.90;;;;;;;-3.38;100.00;99340.11;105473;1259;72983;-58
2023/12/01 01:32:54;;;;;;;89.20;43.80;;;;;;;-3.34;100.00;99344.73;105414;1259;81380;-58
2023/12/01 01:35:23;;;;;;;90.70;45.40;;;;;;;-3.32;100.00;99350.73;105382;1258;71840;-58
2023/12/01 01:37:51;;;;;;;87.10;44.70;;;;;;;-3.32;100.00;99356.70;105380;1254;69091;-58
2023/12/01 01:40:19;;;;;;;87.90;46.00;;;;;;;-3.33;100.00;99360.62;105427;1259;69218;-58
2023/12/01 01:42:47;;;;;;;85.70;47.30;;;;;;;-3.32;100.00;99359.95;105393;1253;72759;-57
2023/12/01 01:45:16;;;;;;;96.60;47.90;;;;;;;-3.26;100.00;99364.90;105393;1253;80710;-58
2023/12/01 01:47:44;;;;;;;83.60;46.30;;;;;;;-3.22;100.00;99367.31;105505;1259;71471;-58
2023/12/01 01:50:13;;;;;;;87.10;45.30;;;;;;;-3.18;100.00;99379.79;105504;1259;69068;-58
2023/12/01 01:52:41;;;;;;;92.40;46.20;;;;;;;-3.16;100.00;99377.57;105436;1258;69104;-58
2023/12/01 01:55:12;;;;;;;82.00;44.70;;;;;;;-3.11;100.00;99375.52;105470;1259;71835;-58
2023/12/01 01:57:44;;;;;;;94.50;45.90;;;;;;;-3.11;100.00;99382.02;105410;1259;81459;-58
2023/12/01 02:00:17;;;;;;;101.00;55.70;;;;;;;-3.13;100.00;99386.47;105464;1254;72020;-58
2023/12/01 02:02:46;;;;;;;94.30;50.80;;;;;;;-3.13;100.00;99385.44;105419;1259;69528;-58
2023/12/01 02:05:15;;;;;;;93.80;47.40;;;;;;;-3.11;100.00;99380.47;105447;1259;69157;-58
2023/12/01 02:07:43;;;;;;;93.00;48.80;;;;;;;-3.09;100.00;99373.66;105416;1253;73011;-57
2023/12/01 02:10:15;;;;;;;94.90;48.90;;;;;;;-3.08;100.00;99369.71;105535;1258;81434;-58
2023/12/01 02:12:45;;;;;;;95.60;48.40;;;;;;;-3.05;100.00;99370.75;105425;1253;71877;-58
2023/12/01 02:15:13;;;;;;;84.80;45.80;;;;;;;-3.03;100.00;99370.06;105523;1259;69188;-58
2023/12/01 02:17:41;;;;;;;97.80;48.40;;;;;;;-3.01;100.00;99371.10;105389;1254;69158;-57
2023/12/01 02:20:14;;;;;;;89.80;46.80;;;;;;;-2.99;100.00;99371.45;105391;1254;72991;-57
2023/12/01 02:22:44;;;;;;;98.90;48.90;;;;;;;-2.98;100.00;99375.71;105525;1259;83189;-58
2023/12/01 02:25:14;;;;;;;96.70;48.10;;;;;;;-2.97;100.00;99377.77;105394;1259;71637;-58
2023/12/01 02:27:42;;;;;;;94.70;48.40;;;;;;;-2.95;100.00;99374.69;105429;1259;69759;-58
2023/12/01 02:30:11;;;;;;;98.80;51.90;;;;;;;-2.93;100.00;99373.84;105523;1259;69166;-57
2023/12/01 02:32:39;;;;;;;111.40;58.70;;;;;;;-2.89;100.00;99369.73;105435;1259;72271;-58
2023/12/01 02:35:09;;;;;;;106.90;55.40;;;;;;;-2.87;100.00;99357.27;105491;1254;81802;-58
2023/12/01 02:37:38;;;;;;;110.70;55.40;;;;;;;-2.86;100.00;99349.40;105501;1258;70756;-58
2023/12/01 02:40:15;;;;;;;105.80;52.90;;;;;;;-2.84;100.00;99346.84;105352;1254;69119;-58
2023/12/01 02:42:46;;;;;;;103.60;51.00;;;;;;;-2.83;100.00;99346.15;105399;1259;69195;-58
2023/12/01 02:45:15;;;;;;;105.70;53.30;;;;;;;-2.83;100.00;99344.44;105414;1253;71893;-58
2023/12/01 02:47:45;;;;;;;104.40;52.00;;;;;;;-2.83;100.00;99341.37;105446;1259;81438;-58
2023/12/01 02:50:14;;;;;;;99.60;49.80;;;;;;;-2.83;100.00;99342.38;105427;1254;71620;-58
2023/12/01 02:52:43;;;;;;;102.20;51.10;;;;;;;-2.84;100.00;99344.95;105372;1259;69155;-58
2023/12/01 02:55:12;;;;;;;92.40;48.20;;;;;;;-2.83;100.00;99347.35;105396;1254;69148;-58
2023/12/01 02:57:41;;;;;;;99.60;49.00;;;;;;;-2.81;100.00;99346.33;105380;1254;73102;-56
2023/12/01 03:00:13;;;;;;;103.60;51.70;;;;;;;-2.82;100.00;99349.91;105388;1258;83355;-58
2023/12/01 03:02:43;;;;;;;110.60;57.20;;;;;;;-2.80;100.00;99355.90;105439;1254;71860;-58
2023/12/01 03:05:11;;;;;;;103.80;52.80;;;;;;;-2.77;100.00;99360.02;105448;1258;69128;-58
2023/12/01 03:07:40;;;;;;;113.30;59.00;;;;;;;-2.77;100.00;99362.40;105452;1254;69148;-58
2023/12/01 03:10:09;;;;;;;102.50;51.00;;;;;;;-2.79;100.00;99365.99;105464;1253;71327;-58
2023/12/01 03:12:40;;;;;;;96.90;50.00;;;;;;;-2.82;100.00;99368.04;105447;1259;82324;-57
2023/12/01 03:15:11;;;;;;;101.30;49.60;;;;;;;-2.86;100.00;99369.40;105434;1253;70720;-58
2023/12/01 03:17:40;;;;;;;96.90;49.30;;;;;;;-2.88;100.00;99372.31;105416;1259;69221;-58
2023/12/01 03:20:10;;;;;;;94.20;48.50;;;;;;;-2.89;100.00;99369.91;105459;1259;69181;-58
2023/12/01 03:22:51;;;;;;;96.60;49.20;;;;;;;-2.89;100.00;99368.20;105488;1254;72884;-58
2023/12/01 03:25:20;;;;;;;89.80;46.00;;;;;;;-2.90;100.00;99358.29;105375;1259;83158;-58
2023/12/01 03:27:48;;;;;;;98.70;48.40;;;;;;;-2.94;100.00;99350.27;105432;1258;71995;-58
2023/12/01 03:30:18;;;;;;;97.00;48.20;;;;;;;-2.98;100.00;99351.96;105447;1259;69165;-57
2023/12/01 03:32:51;;;;;;;97.90;49.00;;;;;;;-3.01;99.94;99353.83;105472;1259;69185;-58
2023/12/01 03:35:22;;;;;;;93.30;47.40;;;;;;;-3.07;99.85;99349.39;105450;1258;74833;-57
2023/12/01 03:37:55;;;;;;;96.00;48.80;;;;;;;-3.09;99.93;99352.64;105424;1259;81391;-58
2023/12/01 03:40:25;;;;;;;95.40;48.70;;;;;;;-3.12;100.00;99354.85;105425;1254;71907;-57
2023/12/01 03:42:54;;;;;;;97.60;48.00;;;;;;;-3.14;99.98;99352.96;105422;1259;69154;-58
2023/12/01 03:45:23;;;;;;;93.90;46.90;;;;;;;-3.18;99.82;99347.33;105414;1258;69279;-58
2023/12/01 03:47:51;;;;;;;87.20;46.00;;;;;;;-3.24;99.61;99351.08;105478;1255;73483;-58
2023/12/01 03:50:21;;;;;;;90.40;45.50;;;;;;;-3.31;99.19;99355.67;105455;1254;83357;-57
2023/12/01 03:52:51;;;;;;;92.10;45.10;;;;;;;-3.38;99.11;99357.70;105416;1259;71324;-58
2023/12/01 03:55:19;;;;;;;92.60;44.10;;;;;;;-3.45;99.00;99359.23;105337;1260;69214;-58
2023/12/01 03:57:48;;;;;;;84.00;42.80;;;;;;;-3.52;98.79;99360.74;105485;1259;69745;-57
2023/12/01 04:00:18;;;;;;;82.90;41.60;;;;;;;-3.59;98.81;99367.73;105423;1253;74392;-58
2023/12/01 04:02:48;;;;;;;86.60;43.30;;;;;;;-3.65;98.80;99370.95;105442;1254;81986;-58
2023/12/01 04:05:18;;;;;;;78.50;39.70;;;;;;;-3.67;98.99;99370.23;105453;1259;73227;-58
2023/12/01 04:07:51;;;;;;;90.20;42.60;;;;;;;-3.71;99.02;99372.11;105464;1259;69509;-57
2023/12/01 04:10:24;;;;;;;84.20;42.00;;;;;;;-3.74;99.07;99372.09;105433;1259;69176;-58
2023/12/01 04:12:55;;;;;;;87.60;44.30;;;;;;;-3.76;99.14;99373.45;105434;1259;73084;-58
2023/12/01 04:15:27;;;;;;;93.90;45.70;;;;;;;-3.77;99.47;99382.33;105372;1259;81700;-58
2023/12/01 04:17:55;;;;;;;91.50;45.80;;;;;;;-3.73;99.95;99386.77;105344;1259;71813;-58
2023/12/01 04:20:25;;;;;;;97.40;48.40;;;;;;;-3.68;100.00;99388.00;105397;1254;69133;-58
2023/12/01 04:23:00;;;;;;;99.20;47.80;;;;;;;-3.60;100.00;99392.48;105469;1254;69189;-57
2023/12/01 04:25:30;;;;;;;97.00;48.90;;;;;;;-3.53;100.00;99393.02;105427;1258;73219;-58
2023/12/01 04:27:58;;;;;;;105.10;50.60;;;;;;;-3.48;100.00;99388.24;105432;1260;81525;-57
2023/12/01 04:30:27;;;;;;;99.90;51.00;;;;;;;-3.47;100.00;99388.25;105436;1259;71838;-58
2023/12/01 04:32:56;;;;;;;99.10;50.70;;;;;;;-3.44;100.00;99382.45;105365;1257;69190;-57
2023/12/01 04:35:31;;;;;;;103.30;50.30;;;;;;;-3.43;100.00;99393.05;105405;1254;69180;-57
2023/12/01 04:38:03;;;;;;;107.20;52.90;;;;;;;-3.42;100.00;99389.98;105357;1258;73397;-57
2023/12/01 04:40:32;;;;;;;97.50;50.80;;;;;;;-3.41;100.00;99394.25;105423;1259;81343;-57
2023/12/01 04:43:01;;;;;;;98.90;50.60;;;;;;;-3.39;100.00;99400.23;105401;1255;71987;-57
2023/12/01 04:45:37;;;;;;;107.70;51.00;;;;;;;-3.35;100.00;99399.05;105378;1258;69563;-58
2023/12/01 04:48:08;;;;;;;105.10;51.20;;;;;;;-3.32;100.00;99400.60;105333;1255;69181;-57
2023/12/01 04:50:47;;;;;;;102.80;51.30;;;;;;;-3.28;100.00;99403.33;105444;1258;73280;-58
2023/12/01 04:53:16;;;;;;;98.40;50.70;;;;;;;-3.27;100.00;99398.89;105404;1259;81359;-57
2023/12/01 04:55:46;;;;;;;102.90;52.10;;;;;;;-3.28;100.00;99396.34;105379;1254;70384;-58
2023/12/01 04:58:15;;;;;;;110.70;54.80;;;;;;;-3.28;100.00;99391.89;105426;1260;69198;-57
2023/12/01 05:00:43;;;;;;;101.10;51.20;;;;;;;-3.28;100.00;99393.10;105365;1259;69173;-58
2023/12/01 05:03:12;;;;;;;106.70;52.80;;;;;;;-3.25;100.00;99390.54;105253;1253;73070;-57
2023/12/01 05:05:41;;;;;;;100.20;52.00;;;;;;;-3.22;100.00;99397.89;105501;1259;82792;-57
2023/12/01 05:08:12;;;;;;;103.60;55.60;;;;;;;-3.19;100.00;99403.71;105439;1258;72077;-56
2023/12/01 05:10:44;;;;;;;;;;;;;;;-3.16;100.00;99410.54;105384;1260;69152;-55
2023/12/01 05:13:14;;;;;;;94.90;48.10;;;;;;;-3.15;100.00;99416.70;105465;1259;69850;-58
2023/12/01 05:15:43;;;;;;;105.40;52.60;;;;;;;-3.12;100.00;99423.02;105425;1260;72896;-58
2023/12/01 05:18:12;;;;;;;104.10;52.00;;;;;;;-3.07;100.00;99425.42;105421;1267;82119;-56
2023/12/01 05:20:40;;;;;;;101.80;53.20;;;;;;;-3.02;100.00;99422.20;105597;1259;70398;-55
2023/12/01 05:23:09;;;;;;;99.70;51.60;;;;;;;-2.98;100.00;99425.45;105472;1259;69128;-57
2023/12/01 05:25:41;;;;;;;105.00;53.80;;;;;;;-2.96;100.00;99420.67;105369;1267;69215;-52
2023/12/01 05:28:11;;;;;;;106.60;51.90;;;;;;;-2.94;100.00;99415.03;105497;1254;73429;-53
2023/12/01 05:30:41;;;;;;;105.90;51.30;;;;;;;-2.92;100.00;99406.83;105571;1254;82234;-51
2023/12/01 05:33:09;;;;;;;103.80;51.50;;;;;;;-2.90;100.00;99405.30;105623;1254;72992;-53
2023/12/01 05:35:39;;;;;;;99.30;51.30;;;;;;;-2.89;100.00;99406.16;105564;1259;69298;-55
2023/12/01 05:38:07;;;;;;;106.00;52.00;;;;;;;-2.87;100.00;99404.79;105484;1258;69175;-53
2023/12/01 05:40:36;;;;;;;107.60;54.60;;;;;;;-2.85;100.00;99411.28;105755;1254;74021;-54
2023/12/01 05:43:06;;;;;;;102.00;53.70;;;;;;;-2.83;100.00;99409.07;105529;1259;81443;-53
2023/12/01 05:45:35;;;;;;;110.60;53.60;;;;;;;-2.81;100.00;99408.73;105585;1259;71743;-56
2023/12/01 05:48:06;;;;;;;100.60;51.40;;;;;;;-2.83;100.00;99404.10;105610;1259;69496;-55
2023/12/01 05:50:37;;;;;;;100.20;52.10;;;;;;;-2.84;100.00;99406.34;105554;1257;69055;-54
2023/12/01 05:53:10;;;;;;;98.00;50.60;;;;;;;-2.83;100.00;99413.84;105630;1258;73244;-52
2023/12/01 05:55:39;;;;;;;117.40;58.20;;;;;;;-2.81;100.00;99417.80;105648;1257;83814;-52
2023/12/01 05:58:10;;;;;;;120.70;60.90;;;;;;;-2.81;100.00;99412.83;105578;1258;71581;-55
2023/12/01 06:00:39;;;;;;;107.30;56.50;;;;;;;-2.82;100.00;99406.34;105487;1257;69816;-52
2023/12/01 06:03:09;;;;;;;113.90;57.30;;;;;;;-2.82;100.00;99399.67;105623;1257;69202;-53
2023/12/01 06:05:39;;;;;;;;;;;;;;;-2.81;100.00;99399.66;105690;1257;71997;-52
2023/12/01 06:08:10;;;;;;;122.90;63.40;;;;;;;-2.80;100.00;99391.64;105631;1260;81658;-54
2023/12/01 06:10:40;;;;;;;123.30;63.30;;;;;;;-2.80;100.00;99405.98;105678;1257;71829;-52
2023/12/01 06:13:08;;;;;;;122.60;62.10;;;;;;;-2.79;100.00;99411.30;105478;1260;69077;-53
2023/12/01 06:15:36;;;;;;;119.20;61.80;;;;;;;-2.77;100.00;99412.14;105530;1254;69998;-53
2023/12/01 06:18:05;;;;;;;127.20;64.10;;;;;;;-2.75;100.00;99408.91;105664;1255;74159;-52
2023/12/01 06:20:34;;;;;;;142.30;66.40;;;;;;;-2.72;100.00;99417.45;105644;1260;81529;-54
2023/12/01 06:23:07;;;;;;;136.90;66.70;;;;;;;-2.70;100.00;99418.83;105526;1260;70434;-54
2023/12/01 06:25:38;;;;;;;145.70;67.10;;;;;;;-2.70;100.00;99424.13;105626;1266;69074;-54
2023/12/01 06:28:08;;;;;;;;;;;;;;;-2.70;100.00;99424.12;105625;1259;69069;-55
2023/12/01 06:30:38;;;;;;;156.70;68.60;;;;;;;-2.72;100.00;99419.34;105667;1259;73431;-56
2023/12/01 06:33:07;;;;;;;152.90;68.40;;;;;;;-2.72;100.00;99422.41;105631;1266;82710;-54
2023/12/01 06:35:37;;;;;;;135.00;61.80;;;;;;;-2.72;100.00;99427.88;105524;1258;72285;-55
2023/12/01 06:38:07;;;;;;;125.50;60.20;;;;;;;-2.74;100.00;99433.19;105607;1254;68987;-55
2023/12/01 06:40:35;;;;;;;125.00;62.20;;;;;;;-2.77;100.00;99439.16;105656;1257;69201;-55
2023/12/01 06:43:09;;;;;;;123.50;61.20;;;;;;;-2.78;100.00;99438.30;105795;1256;73195;-55
2023/12/01 06:45:41;;;;;;;133.30;66.30;;;;;;;-2.76;100.00;99427.04;105640;1257;82409;-55
2023/12/01 06:48:12;;;;;;;171.40;79.90;;;;;;;-2.75;100.00;99424.63;105448;1255;71795;-55
2023/12/01 06:50:42;;;;;;;161.50;77.10;;;;;;;-2.74;100.00;99424.13;105549;1254;69564;-55
2023/12/01 06:53:10;;;;;;;159.50;77.40;;;;;;;-2.74;100.00;99420.70;105443;1257;69085;-55
2023/12/01 06:55:40;;;;;;;157.30;77.90;;;;;;;-2.74;100.00;99417.12;105575;1258;73153;-56
2023/12/01 06:58:09;;;;;;;155.30;78.00;;;;;;;-2.74;100.00;99427.55;105635;1257;81491;-54
2023/12/01 07:00:39;;;;;;;143.70;69.70;;;;;;;-2.74;100.00;99430.62;105650;1256;71949;-56
2023/12/01 07:03:08;;;;;;;;;;;;;;;-2.75;100.00;99435.58;105524;1255;69207;-56
2023/12/01 07:05:39;;;;;;;125.00;60.00;;;;;;;-2.77;100.00;99434.89;105647;1257;69178;-55
2023/12/01 07:08:14;;;;;;;119.70;60.20;;;;;;;-2.79;100.00;99435.23;105790;1254;72825;-55
2023/12/01 07:10:44;;;;;;;118.80;59.70;;;;;;;-2.79;100.00;99438.82;105684;1259;82353;-56
2023/12/01 07:13:13;;;;;;;119.30;60.90;;;;;;;-2.77;100.00;99434.89;105601;1254;72092;-57
2023/12/01 07:15:41;;;;;;;114.80;58.70;;;;;;;-2.76;100.00;99432.67;105612;1257;69141;-58
2023/12/01 07:18:10;;;;;;;115.30;60.10;;;;;;;-2.76;100.00;99430.61;105699;1257;69198;-58
2023/12/01 07:20:39;;;;;;;120.40;60.70;;;;;;;-2.76;100.00;99433.02;105557;1254;72916;-58
2023/12/01 07:23:07;;;;;;;119.90;60.40;;;;;;;-2.78;100.00;99434.20;105506;1254;82616;-57
2023/12/01 07:25:36;;;;;;;115.40;62.30;;;;;;;-2.78;100.00;99438.13;105536;1254;72277;-58
2023/12/01 07:28:06;;;;;;;131.30;66.30;;;;;;;-2.76;100.00;99441.39;105734;1257;69901;-58
2023/12/01 07:30:34;;;;;;;126.50;65.50;;;;;;;-2.72;100.00;99450.79;105727;1260;69054;-58
2023/12/01 07:33:05;;;;;;;158.30;80.70;;;;;;;-2.67;100.00;99449.78;105944;1256;73618;-57
2023/12/01 07:35:34;;;;;;;147.10;75.90;;;;;;;-2.64;100.00;99454.58;105509;1257;82013;-58
2023/12/01 07:38:04;;;;;;;153.10;82.30;;;;;;;-2.63;100.00;99456.11;105480;1257;72958;-57
2023/12/01 07:40:33;;;;;;;157.30;82.50;;;;;;;-2.63;100.00;99458.67;105723;1257;69241;-58
2023/12/01 07:43:02;;;;;;;136.50;69.20;;;;;;;-2.58;100.00;99464.84;105689;1260;69093;-57
2023/12/01 07:45:31;;;;;;;134.50;72.30;;;;;;;-2.55;100.00;99468.25;105597;1257;73223;-58
2023/12/01 07:48:00;;;;;;;134.50;67.90;;;;;;;-2.56;100.00;99472.20;105672;1258;81293;-57
2023/12/01 07:50:28;;;;;;;134.80;71.70;;;;;;;-2.56;100.00;99469.29;105619;1259;71219;-57
2023/12/01 07:52:56;;;;;;;121.30;64.40;;;;;;;-2.56;100.00;99466.38;105574;1254;69125;-58
2023/12/01 07:55:26;;;;;;;127.70;63.60;;;;;;;-2.57;100.00;99470.32;105528;1257;69175;-58
2023/12/01 07:57:55;;;;;;;131.30;63.60;;;;;;;-2.58;100.00;99475.95;105502;1254;72967;-57
2023/12/01 08:00:24;;;;;;;135.80;66.60;;;;;;;-2.57;100.00;99476.30;105501;1257;81467;-58
2023/12/01 08:02:52;;;;;;;134.20;70.10;;;;;;;-2.54;100.00;99481.44;105580;1257;72326;-57
2023/12/01 08:05:24;;;;;;;147.80;73.60;;;;;;;-2.53;100.00;99481.78;105711;1254;69274;-58
2023/12/01 08:07:53;;;;;;;136.60;75.10;;;;;;;-2.52;100.00;99475.11;105677;1254;69131;-57
2023/12/01 08:10:27;;;;;;;156.00;77.80;;;;;;;-2.50;100.00;99471.17;105622;1255;73059;-57
2023/12/01 08:13:00;;;;;;;156.40;72.90;;;;;;;-2.47;100.00;99486.75;105601;1254;81389;-58
2023/12/01 08:15:30;;;;;;;142.70;72.10;;;;;;;-2.44;100.00;99492.05;105549;1254;72004;-58
2023/12/01 08:18:00;;;;;;;132.90;67.40;;;;;;;-2.38;100.00;99491.02;105560;1257;69412;-59
2023/12/01 08:20:29;;;;;;;135.70;68.60;;;;;;;-2.34;100.00;99495.98;105741;1256;69156;-58
2023/12/01 08:22:59;;;;;;;121.80;60.10;;;;;;;-2.32;100.00;99502.67;105580;1254;73894;-58
2023/12/01 08:25:29;;;;;;;119.30;61.30;;;;;;;-2.26;100.00;99508.48;105640;1257;81806;-58
2023/12/01 08:27:59;;;;;;;116.90;59.20;;;;;;;-2.20;100.00;99510.38;105565;1261;70913;-58
2023/12/01 08:30:27;;;;;;;115.30;59.20;;;;;;;-2.16;100.00;99510.03;105633;1258;69075;-59
2023/12/01 08:32:56;;;;;;;119.90;62.30;;;;;;;-2.12;100.00;99513.30;105512;1254;69179;-59
2023/12/01 08:35:25;;;;;;;118.90;61.70;;;;;;;-2.09;100.00;99519.27;105626;1257;75136;-55
2023/12/01 08:37:55;;;;;;;115.20;59.40;;;;;;;-2.06;100.00;99524.58;105577;1257;81332;-57
2023/12/01 08:40:23;;;;;;;110.20;57.30;;;;;;;-2.03;100.00;99527.83;105426;1254;72345;-58
2023/12/01 08:42:54;;;;;;;115.50;59.70;;;;;;;-1.99;100.00;99526.30;105479;1257;69134;-57
2023/12/01 08:45:23;;;;;;;108.50;58.00;;;;;;;-1.96;100.00;99529.88;105493;1255;69112;-57
2023/12/01 08:47:52;;;;;;;117.10;62.70;;;;;;;-1.93;100.00;99537.59;105660;1254;72573;-57
2023/12/01 08:50:22;;;;;;;116.30;58.40;;;;;;;-1.94;100.00;99541.02;105701;1257;81899;-58
2023/12/01 08:52:50;;;;;;;118.10;58.70;;;;;;;-1.94;100.00;99537.77;105501;1254;72993;-57
2023/12/01 08:55:19;;;;;;;121.30;57.70;;;;;;;-1.90;100.00;99543.23;105653;1257;69140;-58
2023/12/01 08:57:47;;;;;;;114.50;60.10;;;;;;;-1.87;100.00;99554.20;105546;1253;69208;-58
2023/12/01 09:00:20;;;;;;;114.80;58.20;;;;;;;-1.84;100.00;99562.42;105690;1257;72796;-57
2023/12/01 09:02:51;;;;;;;109.20;56.90;;;;;;;-1.79;100.00;99555.05;105810;1257;81454;-58
2023/12/01 09:05:21;;;;;;;102.40;55.50;;;;;;;-1.75;100.00;99556.41;105660;1257;71559;-58
2023/12/01 09:07:50;;;;;;;114.80;58.00;;;;;;;-1.74;100.00;99558.65;105886;1258;69137;-58
2023/12/01 09:10:22;;;;;;;110.60;57.80;;;;;;;-1.76;100.00;99562.41;105661;1264;69284;-58
2023/12/01 09:12:51;;;;;;;110.70;58.30;;;;;;;-1.76;100.00;99562.41;105634;1257;72725;-58
2023/12/01 09:15:20;;;;;;;104.70;55.10;;;;;;;-1.73;100.00;99570.80;105752;1254;83152;-58
2023/12/01 09:17:49;;;;;;;110.80;57.60;;;;;;;-1.69;100.00;99576.80;105716;1254;71819;-58
2023/12/01 09:20:19;;;;;;;120.90;62.30;;;;;;;-1.63;100.00;99568.05;105752;1254;69051;-56
2023/12/01 09:22:47;;;;;;;121.40;63.20;;;;;;;-1.57;100.00;99561.54;105554;1257;69131;-57
2023/12/01 09:25:15;;;;;;;115.40;63.10;;;;;;;-1.51;100.00;99562.39;105497;1254;72869;-56
2023/12/01 09:27:44;;;;;;;117.30;62.60;;;;;;;-1.47;100.00;99556.21;105546;1258;83339;-58
2023/12/01 09:30:16;;;;;;;118.40;61.30;;;;;;;-1.44;100.00;99555.00;105552;1254;70028;-59
2023/12/01 09:32:46;;;;;;;123.10;66.20;;;;;;;-1.40;100.00;99558.43;105551;1257;69180;-59
2023/12/01 09:35:15;;;;;;;125.10;64.10;;;;;;;-1.38;100.00;99557.73;105579;1254;69182;-59
2023/12/01 09:38:04;;;;;;;124.20;63.50;;;;;;;-1.36;100.00;99552.41;105507;1257;72828;-59
2023/12/01 09:40:38;;;;;;;125.70;64.90;;;;;;;-1.33;100.00;99552.59;105693;1257;81637;-58
2023/12/01 09:43:07;;;;;;;131.90;68.60;;;;;;;-1.35;100.00;99557.91;105662;1258;71318;-59
2023/12/01 09:45:35;;;;;;;136.20;70.90;;;;;;;-1.35;99.99;99560.30;105618;1257;69210;-59
2023/12/01 09:48:06;;;;;;;132.70;69.00;;;;;;;-1.33;100.00;99563.39;105747;1257;69301;-58
2023/12/01 09:50:34;;;;;;;131.40;68.00;;;;;;;-1.32;100.00;99563.90;105825;1257;72575;-59
2023/12/01 09:53:02;;;;;;;128.70;69.30;;;;;;;-1.30;100.00;99567.83;105612;1254;80030;-59
2023/12/01 09:55:33;;;;;;;127.80;66.40;;;;;;;-1.29;100.00;99568.67;105527;1257;71771;-59
2023/12/01 09:58:02;;;;;;;137.40;68.90;;;;;;;-1.31;99.98;99562.00;105684;1257;69190;-58
2023/12/01 10:00:30;;;;;;;135.70;72.30;;;;;;;-1.32;100.00;99562.52;105653;1253;69237;-58
2023/12/01 10:02:58;;;;;;;154.90;78.50;;;;;;;-1.35;99.98;99560.48;105482;1254;72532;-57
2023/12/01 10:05:29;;;;;;;152.70;78.60;;;;;;;-1.35;99.98;99561.84;105502;1257;80515;-57
2023/12/01 10:07:57;;;;;;;;;;;;;;;-1.32;100.00;99564.74;105511;1263;73515;-58
2023/12/01 10:10:26;;;;;;;143.60;71.70;;;;;;;-1.31;100.00;99559.77;105443;1259;69119;-58
2023/12/01 10:13:04;;;;;;;147.80;75.30;;;;;;;-1.30;100.00;99557.20;105484;1257;69193;-58
2023/12/01 10:15:37;;;;;;;121.60;64.00;;;;;;;-1.30;100.00;99558.58;105600;1256;72794;-58
2023/12/01 10:18:11;;;;;;;125.10;65.40;;;;;;;-1.30;99.90;99553.42;105421;1257;81402;-58
2023/12/01 10:21:07;;;;;;;145.30;73.70;;;;;;;-1.34;99.89;99550.18;105463;1256;72395;-58
2023/12/01 10:23:36;;;;;;;166.70;88.10;;;;;;;-1.35;99.99;99555.33;105368;1257;69243;-57
2023/12/01 10:26:07;;;;;;;145.70;74.30;;;;;;;-1.33;99.96;99558.07;107260;1253;69099;-58
2023/12/01 10:28:40;;;;;;;121.90;64.20;;;;;;;-1.29;100.00;99551.02;105476;1254;71279;-58
2023/12/01 10:31:09;;;;;;;123.30;65.80;;;;;;;-1.22;100.00;99550.15;105490;1257;81143;-58
2023/12/01 10:33:39;;;;;;;116.70;61.50;;;;;;;-1.17;100.00;99546.36;105484;1257;71597;-58
2023/12/01 10:36:09;;;;;;;108.10;56.40;;;;;;;-1.11;100.00;99544.28;105508;1257;69202;-59
2023/12/01 10:38:37;;;;;;;133.40;67.50;;;;;;;-1.06;100.00;99539.29;105503;1256;69211;-58
2023/12/01 10:41:08;;;;;;;107.40;56.70;;;;;;;-1.02;100.00;99537.05;105484;1254;72594;-58
2023/12/01 10:43:36;;;;;;;128.70;67.00;;;;;;;-0.97;100.00;99535.83;105504;1254;80624;-52
2023/12/01 10:46:05;;;;;;;105.70;56.90;;;;;;;-0.90;100.00;99529.27;105510;1257;71786;-53
2023/12/01 10:48:34;;;;;;;94.80;54.20;;;;;;;-0.88;100.00;99529.79;105647;1254;69231;-55
2023/12/01 10:51:03;;;;;;;98.00;54.40;;;;;;;-0.85;100.00;99536.45;105571;1254;69167;-58
2023/12/01 10:53:34;;;;;;;99.40;51.80;;;;;;;-0.81;100.00;99535.76;105571;1257;73282;-57
2023/12/01 10:56:08;;;;;;;107.60;53.70;;;;;;;-0.77;100.00;99544.48;105414;1257;177770;-56
2023/12/01 10:58:38;;;;;;;115.10;59.50;;;;;;;-0.73;100.00;99547.39;105443;1259;72517;-51
2023/12/01 11:01:07;;;;;;;103.90;55.30;;;;;;;-0.68;100.00;99549.94;105422;1257;69109;-57
2023/12/01 11:03:37;;;;;;;96.80;55.20;;;;;;;-0.63;100.00;99546.99;105492;1254;69183;-56
2023/12/01 11:06:10;;;;;;;117.70;61.80;;;;;;;-0.63;100.00;99548.18;105504;1254;75499;-56
2023/12/01 11:09:11;;;;;;;105.70;56.50;;;;;;;-0.63;100.00;99545.45;105503;1256;81799;-53
2023/12/01 11:11:46;;;;;;;104.40;56.60;;;;;;;-0.63;100.00;99554.37;105462;1257;72394;-56